createdAt,value
2018-08-25T00:01:30.896Z,29.00
2018-08-25T00:03:59.293Z,28.90
2018-08-25T00:06:27.681Z,29.10
2018-08-25T00:08:56.043Z,28.90
2018-08-25T00:11:24.511Z,29.00
2018-08-25T00:13:52.887Z,29.10
2018-08-25T00:16:21.344Z,29.10
2018-08-25T00:18:49.721Z,29.10
2018-08-25T00:21:18.164Z,28.80
2018-08-25T00:23:46.588Z,28.90
2018-08-25T00:26:15.028Z,28.80
2018-08-25T00:28:43.418Z,28.70
2018-08-25T00:31:17.334Z,29.00
2018-08-25T00:33:45.773Z,29.10
2018-08-25T00:36:14.270Z,28.60
2018-08-25T00:38:42.744Z,28.80
2018-08-25T00:41:11.535Z,29.30
2018-08-25T00:43:40.410Z,29.40
2018-08-25T00:46:09.163Z,29.80
2018-08-25T00:48:37.699Z,30.30
2018-08-25T00:51:06.218Z,30.90
2018-08-25T00:53:35.120Z,31.20
2018-08-25T00:56:03.582Z,31.40
2018-08-25T00:58:31.968Z,31.80
2018-08-25T01:01:00.440Z,31.70
2018-08-25T01:03:28.929Z,31.60
2018-08-25T01:05:57.310Z,31.70
2018-08-25T01:08:25.784Z,31.80
2018-08-25T01:10:54.202Z,32.00
2018-08-25T01:13:22.660Z,32.30
2018-08-25T01:15:51.092Z,31.80
2018-08-25T01:18:19.441Z,31.80
2018-08-25T01:20:48.019Z,31.80
2018-08-25T01:23:16.811Z,32.10
2018-08-25T01:25:45.345Z,32.40
2018-08-25T01:28:13.853Z,33.00
2018-08-25T01:30:42.324Z,33.30
2018-08-25T01:33:11.023Z,33.60
2018-08-25T01:35:39.618Z,33.70
2018-08-25T01:38:08.360Z,33.90
2018-08-25T01:40:36.789Z,34.10
2018-08-25T01:43:05.230Z,34.20
2018-08-25T01:45:33.632Z,34.30
2018-08-25T01:48:02.056Z,34.40
2018-08-25T01:50:30.532Z,34.60
2018-08-25T01:52:58.928Z,34.70
2018-08-25T01:55:27.324Z,34.80
2018-08-25T01:57:55.745Z,34.90
2018-08-25T02:00:24.153Z,34.90
2018-08-25T02:02:52.728Z,35.70
2018-08-25T02:05:21.128Z,35.20
2018-08-25T02:07:49.511Z,35.60
2018-08-25T02:10:17.953Z,35.60
2018-08-25T02:12:46.350Z,36.30
2018-08-25T02:15:14.787Z,36.30
2018-08-25T02:17:43.281Z,36.70
2018-08-25T02:20:11.792Z,36.20
2018-08-25T02:22:40.303Z,36.20
2018-08-25T02:25:08.756Z,37.00
2018-08-25T02:27:37.181Z,37.30
2018-08-25T02:30:05.769Z,37.50
2018-08-25T02:32:34.188Z,37.80
2018-08-25T02:35:02.879Z,38.20
2018-08-25T02:37:31.436Z,38.40
2018-08-25T02:39:59.910Z,38.70
2018-08-25T02:42:28.417Z,38.80
2018-08-25T02:44:56.863Z,39.00
2018-08-25T02:47:25.296Z,39.10
2018-08-25T02:49:53.977Z,39.40
2018-08-25T02:52:22.406Z,39.40
2018-08-25T02:54:50.836Z,39.60
2018-08-25T02:57:19.225Z,39.60
2018-08-25T02:59:47.892Z,40.20
2018-08-25T03:02:16.296Z,40.20
2018-08-25T03:04:44.676Z,40.30
2018-08-25T03:07:13.324Z,40.30
2018-08-25T03:09:41.804Z,40.60
2018-08-25T03:12:11.202Z,41.70
2018-08-25T03:14:39.916Z,41.10
2018-08-25T03:17:08.408Z,40.90
2018-08-25T03:19:37.146Z,41.20
2018-08-25T03:22:05.584Z,41.40
2018-08-25T03:24:34.052Z,41.40
2018-08-25T03:27:02.493Z,41.80
2018-08-25T03:29:30.878Z,41.80
2018-08-25T03:31:59.237Z,42.20
2018-08-25T03:34:27.689Z,42.20
2018-08-25T03:36:56.076Z,42.40
2018-08-25T03:39:24.510Z,42.60
2018-08-25T03:41:52.897Z,42.80
2018-08-25T03:44:21.244Z,43.10
2018-08-25T03:46:49.641Z,43.20
2018-08-25T03:49:18.071Z,43.40
2018-08-25T03:51:46.761Z,43.70
2018-08-25T03:54:15.177Z,43.90
2018-08-25T03:56:43.754Z,44.10
2018-08-25T03:59:12.365Z,44.90
2018-08-25T04:01:40.877Z,44.80
2018-08-25T04:04:09.412Z,45.10
2018-08-25T04:06:37.925Z,45.10
2018-08-25T04:09:09.688Z,45.10
2018-08-25T04:11:38.228Z,45.10
2018-08-25T04:14:07.746Z,45.10
2018-08-25T04:16:36.152Z,45.20
2018-08-25T04:19:04.559Z,45.10
2018-08-25T04:21:32.916Z,45.30
2018-08-25T04:24:01.353Z,45.20
2018-08-25T04:26:29.844Z,45.20
2018-08-25T04:28:58.208Z,45.10
2018-08-25T04:31:27.238Z,45.50
2018-08-25T04:33:56.060Z,45.20
2018-08-25T04:36:24.406Z,46.30
2018-08-25T04:38:52.829Z,45.60
2018-08-25T04:41:21.229Z,45.60
2018-08-25T04:43:49.620Z,46.00
2018-08-25T04:46:17.979Z,46.20
2018-08-25T04:48:46.649Z,46.30
2018-08-25T04:51:15.644Z,46.50
2018-08-25T04:53:44.604Z,46.60
2018-08-25T04:56:13.159Z,46.80
2018-08-25T04:58:41.698Z,46.60
2018-08-25T05:01:10.348Z,47.00
2018-08-25T05:03:38.993Z,46.80
2018-08-25T05:06:07.488Z,46.60
2018-08-25T05:08:35.929Z,46.80
2018-08-25T05:11:04.336Z,47.00
2018-08-25T05:13:32.757Z,48.10
2018-08-25T05:16:01.840Z,47.20
2018-08-25T05:18:30.290Z,47.30
2018-08-25T05:20:58.780Z,47.00
2018-08-25T05:23:27.481Z,47.40
2018-08-25T05:25:55.926Z,47.20
2018-08-25T05:28:24.303Z,47.20
2018-08-25T05:30:52.707Z,47.10
2018-08-25T05:33:21.180Z,47.40
2018-08-25T05:35:49.656Z,47.20
2018-08-25T05:38:18.044Z,47.30
2018-08-25T05:40:46.552Z,47.10
2018-08-25T05:43:15.013Z,47.20
2018-08-25T05:45:46.380Z,47.50
2018-08-25T05:48:14.767Z,47.50
2018-08-25T05:50:43.217Z,47.80
2018-08-25T05:53:13.246Z,47.90
2018-08-25T05:55:41.867Z,47.80
2018-08-25T05:58:10.323Z,48.30
2018-08-25T06:00:38.888Z,48.70
2018-08-25T06:03:07.426Z,49.80
2018-08-25T06:05:35.948Z,50.40
2018-08-25T06:08:04.402Z,50.10
2018-08-25T06:10:32.832Z,50.60
2018-08-25T06:13:01.328Z,50.40
2018-08-25T06:15:29.757Z,50.80
2018-08-25T06:17:58.277Z,51.10
2018-08-25T06:20:27.544Z,51.60
2018-08-25T06:22:56.325Z,52.20
2018-08-25T06:25:25.569Z,52.90
2018-08-25T06:27:54.632Z,53.00
2018-08-25T06:30:23.395Z,53.90
2018-08-25T06:32:52.666Z,53.20
2018-08-25T06:35:21.309Z,53.70
2018-08-25T06:37:49.807Z,54.30
2018-08-25T06:40:18.341Z,55.30
2018-08-25T06:42:47.151Z,55.20
2018-08-25T06:45:16.168Z,57.20
2018-08-25T06:47:44.804Z,57.50
2018-08-25T06:50:13.664Z,58.70
2018-08-25T06:52:43.299Z,58.60
2018-08-25T06:55:12.365Z,57.80
2018-08-25T06:57:41.473Z,58.00
2018-08-25T07:00:10.387Z,61.60
2018-08-25T07:02:39.495Z,63.50
2018-08-25T07:05:08.615Z,63.50
2018-08-25T07:07:37.369Z,63.00
2018-08-25T07:10:06.068Z,63.50
2018-08-25T07:12:34.719Z,63.60
2018-08-25T07:15:03.739Z,64.20
2018-08-25T07:17:32.660Z,63.60
2018-08-25T07:20:01.070Z,64.50
2018-08-25T07:22:29.484Z,64.90
2018-08-25T07:24:57.898Z,65.40
2018-08-25T07:27:26.363Z,64.20
2018-08-25T07:29:54.821Z,67.30
2018-08-25T07:32:23.226Z,66.20
2018-08-25T07:34:51.618Z,65.60
2018-08-25T07:37:19.986Z,64.60
2018-08-25T07:39:48.455Z,64.40
2018-08-25T07:42:16.944Z,64.10
2018-08-25T07:44:45.388Z,64.60
2018-08-25T07:47:13.858Z,64.40
2018-08-25T07:49:42.482Z,65.30
2018-08-25T07:52:10.931Z,65.00
2018-08-25T07:54:39.834Z,64.90
2018-08-25T07:57:08.186Z,64.30
2018-08-25T07:59:36.650Z,64.70
2018-08-25T08:02:05.046Z,64.00
2018-08-25T08:04:33.399Z,65.40
2018-08-25T08:07:02.024Z,65.50
2018-08-25T08:09:30.466Z,64.70
2018-08-25T08:11:59.049Z,65.20
2018-08-25T08:14:27.294Z,66.40
2018-08-25T08:16:55.729Z,65.40
2018-08-25T08:19:24.190Z,64.90
2018-08-25T08:21:52.595Z,62.80
2018-08-25T08:24:21.032Z,60.90
2018-08-25T08:26:50.307Z,61.30
2018-08-25T08:29:18.917Z,61.30
2018-08-25T08:31:47.547Z,61.70
2018-08-25T08:34:15.945Z,61.40
2018-08-25T08:36:44.605Z,61.80
2018-08-25T08:39:13.186Z,60.80
2018-08-25T08:41:41.776Z,60.20
2018-08-25T08:44:11.365Z,60.20
2018-08-25T08:46:43.214Z,59.20
2018-08-25T08:49:11.752Z,59.80
2018-08-25T08:51:45.723Z,61.30
2018-08-25T08:54:14.343Z,62.40
2018-08-25T08:56:43.253Z,61.50
2018-08-25T08:59:16.801Z,61.20
2018-08-25T09:01:45.823Z,61.40
2018-08-25T09:04:18.301Z,60.90
2018-08-25T09:06:47.408Z,60.50
2018-08-25T09:09:16.148Z,58.50
2018-08-25T09:11:45.485Z,56.20
2018-08-25T09:14:14.326Z,56.20
2018-08-25T09:16:42.971Z,54.70
2018-08-25T09:19:11.642Z,53.40
2018-08-25T09:21:40.288Z,51.20
2018-08-25T09:24:18.389Z,52.50
2018-08-25T09:26:46.960Z,50.70
2018-08-25T09:29:15.383Z,52.20
2018-08-25T09:31:43.944Z,52.10
2018-08-25T09:34:12.465Z,51.10
2018-08-25T09:36:41.198Z,48.40
2018-08-25T09:39:10.605Z,48.70
2018-08-25T09:41:40.769Z,45.90
2018-08-25T09:44:09.394Z,48.00
2018-08-25T09:46:38.045Z,47.80
2018-08-25T09:49:06.504Z,48.10
2018-08-25T09:51:34.928Z,46.30
2018-08-25T09:54:03.401Z,44.70
2018-08-25T09:56:31.727Z,46.50
2018-08-25T09:59:00.305Z,44.50
2018-08-25T10:01:30.744Z,43.80
2018-08-25T10:03:59.445Z,43.20
2018-08-25T10:06:28.217Z,43.90
2018-08-25T10:08:56.584Z,41.40
2018-08-25T10:11:24.978Z,42.50
2018-08-25T10:13:53.348Z,42.40
2018-08-25T10:16:21.811Z,41.60
2018-08-25T10:18:50.182Z,41.60
2018-08-25T10:21:18.588Z,42.10
2018-08-25T10:23:46.965Z,42.30
2018-08-25T10:26:15.396Z,39.50
2018-08-25T10:28:43.857Z,37.70
2018-08-25T10:31:12.351Z,35.00
2018-08-25T10:33:40.913Z,32.40
2018-08-25T10:36:09.589Z,31.60
2018-08-25T10:38:38.173Z,30.20
2018-08-25T10:41:11.743Z,30.80
2018-08-25T10:43:40.639Z,33.50
2018-08-25T10:46:09.267Z,34.50
2018-08-25T10:48:37.727Z,35.90
2018-08-25T10:51:14.913Z,35.50
2018-08-25T10:53:43.480Z,33.70
2018-08-25T10:56:12.228Z,33.60
2018-08-25T10:58:40.817Z,32.90
2018-08-25T11:01:09.783Z,30.40
2018-08-25T11:03:38.545Z,29.40
2018-08-25T11:06:07.227Z,29.00
2018-08-25T11:08:35.788Z,28.80
2018-08-25T11:11:04.238Z,28.40
2018-08-25T11:13:32.658Z,28.30
2018-08-25T11:16:01.030Z,28.30
2018-08-25T11:18:29.599Z,27.70
2018-08-25T11:20:58.254Z,28.20
2018-08-25T11:23:26.762Z,28.10
2018-08-25T11:25:55.185Z,28.00
2018-08-25T11:28:23.576Z,28.70
2018-08-25T11:30:51.969Z,29.30
2018-08-25T11:33:20.465Z,29.40
2018-08-25T11:35:48.938Z,29.80
2018-08-25T11:38:17.585Z,29.50
2018-08-25T11:40:46.168Z,28.80
2018-08-25T11:43:14.661Z,29.50
2018-08-25T11:45:43.388Z,29.50
2018-08-25T11:48:12.021Z,29.40
2018-08-25T11:50:40.744Z,28.40
2018-08-25T11:53:09.277Z,28.30
2018-08-25T11:55:38.537Z,28.40
2018-08-25T11:58:06.982Z,26.40
2018-08-25T12:00:35.538Z,27.20
2018-08-25T12:03:04.024Z,26.80
2018-08-25T12:05:32.345Z,26.20
2018-08-25T12:08:00.793Z,25.60
2018-08-25T12:10:29.723Z,25.40
2018-08-25T12:12:58.160Z,25.90
2018-08-25T12:15:26.692Z,25.60
2018-08-25T12:17:55.113Z,25.30
2018-08-25T12:20:23.682Z,25.50
2018-08-25T12:22:52.064Z,25.00
2018-08-25T12:25:20.500Z,25.00
2018-08-25T12:27:49.002Z,25.90
2018-08-25T12:30:17.577Z,25.50
2018-08-25T12:32:46.020Z,25.30
2018-08-25T12:35:14.643Z,25.60
2018-08-25T12:37:43.245Z,26.10
2018-08-25T12:40:12.002Z,26.50
2018-08-25T12:42:40.555Z,25.50
2018-08-25T12:45:09.735Z,26.00
2018-08-25T12:47:38.240Z,26.00
2018-08-25T12:50:06.645Z,25.40
2018-08-25T12:52:35.024Z,26.60
2018-08-25T12:55:03.518Z,26.50
2018-08-25T12:57:31.938Z,27.10
2018-08-25T13:00:00.392Z,27.00
2018-08-25T13:02:28.794Z,27.30
2018-08-25T13:04:57.201Z,27.20
2018-08-25T13:07:25.646Z,27.00
2018-08-25T13:09:54.012Z,26.70
2018-08-25T13:12:22.480Z,26.50
2018-08-25T13:14:50.908Z,26.30
2018-08-25T13:17:19.225Z,26.20
2018-08-25T13:19:47.720Z,26.70
2018-08-25T13:22:16.261Z,27.00
2018-08-25T13:24:44.876Z,26.90
2018-08-25T13:27:13.355Z,26.90
2018-08-25T13:29:42.000Z,27.30
2018-08-25T13:32:10.412Z,27.10
2018-08-25T13:34:38.917Z,26.90
2018-08-25T13:37:07.427Z,26.20
2018-08-25T13:39:35.891Z,26.40
2018-08-25T13:42:04.345Z,26.30
2018-08-25T13:44:32.869Z,26.40
2018-08-25T13:47:01.269Z,26.20
2018-08-25T13:49:29.685Z,25.80
2018-08-25T13:51:58.070Z,25.60
2018-08-25T13:54:26.480Z,25.20
2018-08-25T13:56:54.827Z,25.20
2018-08-25T13:59:23.259Z,25.30
2018-08-25T14:01:51.755Z,25.80
2018-08-25T14:04:20.191Z,26.20
2018-08-25T14:06:48.610Z,26.70
2018-08-25T14:09:17.036Z,26.60
2018-08-25T14:11:45.501Z,26.00
2018-08-25T14:14:14.226Z,26.30
2018-08-25T14:16:42.829Z,26.60
2018-08-25T14:19:11.429Z,27.00
2018-08-25T14:21:39.976Z,26.40
2018-08-25T14:24:08.410Z,26.80
2018-08-25T14:26:36.828Z,27.20
2018-08-25T14:29:05.537Z,27.00
2018-08-25T14:31:33.974Z,26.00
2018-08-25T14:34:02.597Z,26.30
2018-08-25T14:36:31.170Z,25.80
2018-08-25T14:38:59.646Z,25.50
2018-08-25T14:41:28.100Z,25.50
2018-08-25T14:43:56.498Z,25.40
2018-08-25T14:46:24.974Z,25.60
2018-08-25T14:48:53.390Z,26.00
2018-08-25T14:51:21.789Z,25.80
2018-08-25T14:53:50.220Z,25.00
2018-08-25T14:56:18.648Z,25.20
2018-08-25T14:58:47.086Z,24.70
2018-08-25T15:01:15.527Z,24.70
2018-08-25T15:03:44.057Z,23.90
2018-08-25T15:06:12.583Z,23.70
2018-08-25T15:08:41.130Z,23.90
2018-08-25T15:11:09.566Z,24.00
2018-08-25T15:13:38.084Z,24.20
2018-08-25T15:16:06.535Z,24.20
2018-08-25T15:18:35.099Z,24.70
2018-08-25T15:21:03.539Z,24.30
2018-08-25T15:23:31.939Z,24.90
2018-08-25T15:26:00.420Z,24.10
2018-08-25T15:28:28.886Z,23.90
2018-08-25T15:30:57.346Z,24.30
2018-08-25T15:33:25.725Z,24.80
2018-08-25T15:35:54.168Z,24.80
2018-08-25T15:38:22.561Z,24.70
2018-08-25T15:40:51.016Z,24.70
2018-08-25T15:43:19.656Z,24.60
2018-08-25T15:45:48.145Z,24.90
2018-08-25T15:48:16.487Z,25.10
2018-08-25T15:50:45.892Z,25.00
2018-08-25T15:53:14.415Z,23.80
2018-08-25T15:55:42.934Z,23.60
2018-08-25T15:58:11.486Z,23.90
2018-08-25T16:00:40.051Z,24.60
2018-08-25T16:03:08.488Z,24.70
2018-08-25T16:05:37.073Z,24.80
2018-08-25T16:08:05.790Z,24.10
2018-08-25T16:10:34.237Z,24.00
2018-08-25T16:13:02.704Z,23.90
2018-08-25T16:15:31.158Z,23.50
2018-08-25T16:17:59.619Z,23.90
2018-08-25T16:20:28.192Z,23.80
2018-08-25T16:22:57.032Z,23.80
2018-08-25T16:25:25.499Z,23.90
2018-08-25T16:27:53.992Z,23.20
2018-08-25T16:30:22.423Z,22.80
2018-08-25T16:32:50.809Z,22.40
2018-08-25T16:35:19.188Z,22.70
2018-08-25T16:37:47.596Z,22.50
2018-08-25T16:40:15.961Z,22.60
2018-08-25T16:42:44.792Z,22.50
2018-08-25T16:45:13.820Z,22.90
2018-08-25T16:47:42.901Z,23.00
2018-08-25T16:50:11.576Z,22.70
2018-08-25T16:52:40.406Z,22.90
2018-08-25T16:55:08.943Z,22.40
2018-08-25T16:57:37.497Z,22.50
2018-08-25T17:00:06.654Z,23.00
2018-08-25T17:02:35.104Z,22.90
2018-08-25T17:05:03.546Z,22.80
2018-08-25T17:07:31.937Z,23.30
2018-08-25T17:10:00.358Z,23.00
2018-08-25T17:12:28.731Z,23.10
2018-08-25T17:14:57.584Z,23.60
2018-08-25T17:17:25.995Z,23.60
2018-08-25T17:19:54.399Z,23.80
2018-08-25T17:22:22.837Z,24.10
2018-08-25T17:24:51.936Z,24.00
2018-08-25T17:27:21.080Z,24.70
2018-08-25T17:29:49.954Z,24.80
2018-08-25T17:32:18.365Z,24.90
2018-08-25T17:34:46.896Z,25.10
2018-08-25T17:37:15.896Z,25.40
2018-08-25T17:39:45.126Z,25.60
2018-08-25T17:42:14.495Z,25.70
2018-08-25T17:44:43.816Z,28.90
2018-08-25T17:47:13.072Z,32.10
2018-08-25T17:49:42.308Z,34.30
2018-08-25T17:52:11.812Z,34.90
2018-08-25T17:54:40.991Z,36.20
2018-08-25T17:57:10.008Z,36.20
2018-08-25T17:59:39.542Z,36.70
2018-08-25T18:02:08.886Z,36.30
2018-08-25T18:04:37.848Z,37.10
2018-08-25T18:07:06.664Z,37.00
2018-08-25T18:09:35.265Z,37.50
2018-08-25T18:12:04.154Z,38.20
2018-08-25T18:14:33.095Z,38.20
2018-08-25T18:17:02.067Z,38.50
2018-08-25T18:19:32.321Z,38.70
2018-08-25T18:22:01.820Z,38.70
2018-08-25T18:24:31.205Z,38.70
2018-08-25T18:27:00.493Z,38.50
2018-08-25T18:29:29.766Z,39.00
2018-08-25T18:31:58.743Z,39.60
2018-08-25T18:34:27.848Z,39.90
2018-08-25T18:36:56.360Z,40.90
2018-08-25T18:39:24.821Z,41.50
2018-08-25T18:41:54.127Z,41.60
2018-08-25T18:44:23.275Z,42.00
2018-08-25T18:46:52.351Z,42.60
2018-08-25T18:49:20.869Z,42.40
2018-08-25T18:51:49.518Z,42.40
2018-08-25T18:54:18.053Z,42.10
2018-08-25T18:56:46.426Z,42.10
2018-08-25T18:59:14.885Z,41.90
2018-08-25T19:01:43.779Z,41.80
2018-08-25T19:04:12.549Z,41.90
2018-08-25T19:06:41.080Z,41.60
2018-08-25T19:09:10.035Z,41.60
2018-08-25T19:11:38.770Z,41.70
2018-08-25T19:14:07.402Z,41.70
2018-08-25T19:16:35.820Z,41.80
2018-08-25T19:19:04.199Z,41.50
2018-08-25T19:21:32.679Z,41.60
2018-08-25T19:24:01.087Z,41.80
2018-08-25T19:26:29.605Z,41.70
2018-08-25T19:28:58.172Z,41.60
2018-08-25T19:31:26.646Z,41.50
2018-08-25T19:33:55.248Z,41.50
2018-08-25T19:36:23.771Z,41.80
2018-08-25T19:38:52.284Z,42.10
2018-08-25T19:41:20.774Z,42.40
2018-08-25T19:43:49.785Z,42.60
2018-08-25T19:46:18.389Z,42.80
2018-08-25T19:48:47.022Z,42.70
2018-08-25T19:51:15.507Z,42.50
2018-08-25T19:53:44.464Z,42.60
2018-08-25T19:56:13.085Z,42.80
2018-08-25T19:58:41.793Z,43.10
2018-08-25T20:01:10.478Z,43.30
2018-08-25T20:03:39.066Z,43.20
2018-08-25T20:06:07.689Z,43.70
2018-08-25T20:08:36.165Z,44.10
2018-08-25T20:11:04.693Z,43.60
2018-08-25T20:13:33.507Z,44.10
2018-08-25T20:16:02.197Z,43.90
2018-08-25T20:18:30.628Z,44.20
2018-08-25T20:20:59.423Z,44.00
2018-08-25T20:23:27.993Z,44.00
2018-08-25T20:25:56.681Z,44.00
2018-08-25T20:28:25.247Z,44.00
2018-08-25T20:30:54.026Z,44.40
2018-08-25T20:33:22.930Z,44.70
2018-08-25T20:35:51.734Z,44.60
2018-08-25T20:38:20.430Z,44.80
2018-08-25T20:40:49.250Z,44.70
2018-08-25T20:43:18.253Z,44.10
2018-08-25T20:45:47.851Z,45.10
2018-08-25T20:48:16.542Z,44.40
2018-08-25T20:50:45.207Z,44.70
2018-08-25T20:53:14.067Z,45.10
2018-08-25T20:55:42.900Z,46.00
2018-08-25T20:58:12.075Z,44.90
2018-08-25T21:00:41.127Z,45.20
2018-08-25T21:03:10.173Z,45.20
2018-08-25T21:05:39.123Z,45.00
2018-08-25T21:08:09.041Z,44.70
2018-08-25T21:10:37.674Z,44.70
2018-08-25T21:13:06.601Z,45.40
2018-08-25T21:15:35.383Z,45.80
2018-08-25T21:18:04.060Z,45.60
2018-08-25T21:20:32.846Z,45.30
2018-08-25T21:23:01.715Z,44.90
2018-08-25T21:25:30.816Z,45.10
2018-08-25T21:27:59.454Z,45.00
2018-08-25T21:30:28.669Z,45.60
2018-08-25T21:32:57.469Z,45.20
2018-08-25T21:35:25.952Z,45.40
2018-08-25T21:37:54.519Z,46.10
2018-08-25T21:40:22.946Z,45.60
2018-08-25T21:42:52.804Z,46.00
2018-08-25T21:45:21.285Z,46.20
2018-08-25T21:47:49.681Z,45.70
2018-08-25T21:50:18.551Z,46.50
2018-08-25T21:52:47.275Z,46.30
2018-08-25T21:55:16.369Z,46.70
2018-08-25T21:57:45.204Z,47.20
2018-08-25T22:00:14.130Z,46.40
2018-08-25T22:02:43.910Z,46.00
2018-08-25T22:05:12.828Z,46.00
2018-08-25T22:07:48.319Z,45.80
2018-08-25T22:10:17.188Z,45.80
2018-08-25T22:12:46.063Z,46.20
2018-08-25T22:15:14.748Z,45.80
2018-08-25T22:17:43.857Z,46.20
2018-08-25T22:20:13.052Z,46.30
2018-08-25T22:22:42.690Z,46.30
2018-08-25T22:25:13.353Z,46.50
2018-08-25T22:27:42.274Z,47.00
2018-08-25T22:30:12.054Z,47.20
2018-08-25T22:32:41.041Z,47.50
2018-08-25T22:35:09.781Z,47.50
2018-08-25T22:37:39.350Z,47.80
2018-08-25T22:40:07.884Z,48.40
2018-08-25T22:42:36.500Z,47.50
2018-08-25T22:45:06.885Z,48.00
2018-08-25T22:47:35.385Z,48.60
2018-08-25T22:50:04.001Z,48.50
2018-08-25T22:52:37.871Z,48.70
2018-08-25T22:55:06.659Z,49.00
2018-08-25T22:57:35.079Z,49.30
2018-08-25T23:00:03.549Z,50.00
2018-08-25T23:02:33.247Z,50.40
2018-08-25T23:05:04.123Z,51.30
2018-08-25T23:07:32.773Z,51.20
2018-08-25T23:10:01.278Z,51.20
2018-08-25T23:12:29.672Z,52.00
2018-08-25T23:14:58.065Z,52.20
2018-08-25T23:17:26.620Z,52.20
2018-08-25T23:19:54.994Z,52.20
2018-08-25T23:22:23.844Z,52.10
2018-08-25T23:24:52.293Z,52.70
2018-08-25T23:27:20.691Z,53.10
2018-08-25T23:29:49.057Z,53.30
2018-08-25T23:32:17.741Z,53.60
2018-08-25T23:34:46.312Z,53.90
2018-08-25T23:37:14.761Z,53.90
2018-08-25T23:39:43.321Z,53.90
2018-08-25T23:42:12.048Z,54.20
2018-08-25T23:44:40.496Z,54.20
2018-08-25T23:47:09.047Z,54.40
2018-08-25T23:49:37.544Z,54.90
2018-08-25T23:52:05.946Z,55.60
2018-08-25T23:54:34.383Z,55.40
2018-08-25T23:57:02.793Z,56.00
2018-08-25T23:59:31.221Z,56.70
